CYOW/YOW METAR and TAF weather

Enter ICAO airport designator
Station Type Date Time Source
CYOW METAR 2021/09/23 23:38 UTC NOAA

CYOW 232338Z 10011KT 15SM SCT048 BKN060 BKN120 21/19 A2981 RMK SC4SC2AC1 SLP096 DENSITY ALT 1300FT


Station Type Date Time Source
CYOW Decoded METAR 2021/09/23 23:38 UTC NOAA

Ottawa Int'L. Ont., Canada (CYOW) 45-19N 075-40W 114M
Sep 23, 2021 - 07:38 PM EDT / 2021.09.23 2338 UTC
Wind: from the E (100 degrees) at 13 MPH (11 KT):0
Visibility: 15 mile(s):0
Sky conditions: mostly cloudy
Temperature: 69 F (21 C)
Dew Point: 66 F (19 C)
Relative Humidity: 88%
Pressure (altimeter): 29.81 in. Hg (1009 hPa)
ob: CYOW 232338Z 10011KT 15SM SCT048 BKN060 BKN120 21/19 A2981 RMK SC4SC2AC1 SLP096 DENSITY ALT 1300FT
cycle: 23

Station Type Date Time Source
CYOW TAF 2021/09/23 21:42 UTC NOAA

TAF CYOW 232038Z 2321/2418 10010G20KT P6SM -SHRA BKN040 OVC160
TEMPO 2321/2323 3SM -SHRA BR BKN020 OVC030
FM232300 14012KT 5SM -SHRA BR OVC020
TEMPO 2323/2402 P6SM -SHRA OVC030
FM240200 12008KT 5SM -SHRA BR OVC020
TEMPO 2402/2406 2SM SHRA BR SCT003 OVC006
BECMG 2403/2405 21012KT
FM240600 24008KT P6SM SCT020 BKN030
TEMPO 2406/2408 5SM -SHRA BR BKN020
FM240900 24008KT P6SM SCT008 BKN025
TEMPO 2409/2413 BKN008 OVC025
FM241300 20012KT P6SM BKN025
RMK NXT FCST BY 240000Z

Example: see airport list